createdAt,value
2023-03-13T00:00:04.631Z,1216.9
2023-03-13T00:01:48.311Z,1235
2023-03-13T00:03:32.031Z,1226.7
2023-03-13T00:05:15.707Z,1211.5
2023-03-13T00:06:59.405Z,1204.7
2023-03-13T00:08:43.114Z,1195.4
2023-03-13T00:10:26.812Z,1198.1
2023-03-13T00:12:10.581Z,1202.4
2023-03-13T00:13:54.213Z,1209.8
2023-03-13T00:15:37.938Z,1216.4
2023-03-13T00:17:21.619Z,1212.7
2023-03-13T00:19:05.323Z,1210.6
2023-03-13T00:20:49.019Z,1206.7
2023-03-13T00:22:32.752Z,1207.1
2023-03-13T00:24:16.449Z,1203.4
2023-03-13T00:26:00.123Z,1202.5
2023-03-13T00:27:43.831Z,1199.8
2023-03-13T00:29:27.533Z,1197.8
2023-03-13T00:31:11.444Z,1196.9
2023-03-13T00:32:54.946Z,1197.1
2023-03-13T00:34:38.646Z,1200.6
2023-03-13T00:36:22.406Z,1215.9
2023-03-13T00:38:06.110Z,1232.8
2023-03-13T00:39:49.764Z,1237.7
2023-03-13T00:41:33.463Z,1229.3
2023-03-13T00:43:17.158Z,1220.7
2023-03-13T00:45:00.859Z,1219.8
2023-03-13T00:46:44.561Z,1220.1
2023-03-13T00:48:28.262Z,1221.2
2023-03-13T00:50:11.985Z,1219.7
2023-03-13T00:51:55.664Z,1219.1
2023-03-13T00:53:39.367Z,1217.8
2023-03-13T00:55:23.070Z,1218.5
2023-03-13T00:57:06.773Z,1229.5
2023-03-13T00:58:50.474Z,1242.5
2023-03-13T01:00:34.172Z,1248.4
2023-03-13T01:02:17.873Z,1246.9
2023-03-13T01:04:01.581Z,1252.3
2023-03-13T01:05:45.293Z,1253
2023-03-13T01:07:29.001Z,1249.3
2023-03-13T01:09:12.728Z,1237.7
2023-03-13T01:10:56.404Z,1233.3
2023-03-13T01:12:40.103Z,1230.9
2023-03-13T01:14:23.809Z,1230.5
2023-03-13T01:16:07.522Z,1228.6
2023-03-13T01:17:51.217Z,1228.5
2023-03-13T01:19:34.920Z,1228.8
2023-03-13T01:21:18.613Z,1228.1
2023-03-13T01:23:02.324Z,1228.8
2023-03-13T01:24:46.029Z,1229.7
2023-03-13T01:26:29.733Z,1232.5
2023-03-13T01:28:13.426Z,1233
2023-03-13T01:29:57.130Z,1235.8
2023-03-13T01:31:40.829Z,1239.4
2023-03-13T01:33:24.530Z,1241.2
2023-03-13T01:35:08.244Z,1240
2023-03-13T01:36:51.947Z,1239
2023-03-13T01:38:35.707Z,1240.4
2023-03-13T01:40:19.357Z,1241
2023-03-13T01:42:03.059Z,1236.9
2023-03-13T01:43:46.834Z,1235.2
2023-03-13T01:45:30.455Z,1234.4
2023-03-13T01:47:14.155Z,1232.9
2023-03-13T01:48:57.863Z,1234.3
2023-03-13T01:50:41.557Z,1230.8
2023-03-13T01:52:25.262Z,1231.1
2023-03-13T01:54:08.959Z,1231.8
2023-03-13T01:55:52.662Z,1238.7
2023-03-13T01:57:36.372Z,1246.1
2023-03-13T01:59:20.092Z,1238.7
2023-03-13T02:01:03.773Z,1238.3
2023-03-13T02:02:47.482Z,1239
2023-03-13T02:04:31.183Z,1244.2
2023-03-13T02:06:14.880Z,1244.7
2023-03-13T02:07:58.588Z,1244.4
2023-03-13T02:09:42.289Z,1244.6
2023-03-13T02:11:25.998Z,1244.9
2023-03-13T02:13:09.695Z,1245.8
2023-03-13T02:14:53.398Z,1246.8
2023-03-13T02:16:37.100Z,1248.6
2023-03-13T02:18:20.858Z,1248.7
2023-03-13T02:20:04.531Z,1244.9
2023-03-13T02:21:48.218Z,1245
2023-03-13T02:23:31.898Z,1245.6
2023-03-13T02:25:15.622Z,1247.9
2023-03-13T02:26:59.320Z,1248
2023-03-13T02:28:43.028Z,1242.8
2023-03-13T02:30:26.732Z,1243.6
2023-03-13T02:32:10.454Z,1240.5
2023-03-13T02:33:54.128Z,1244.5
2023-03-13T02:35:37.844Z,1246.1
2023-03-13T02:37:21.526Z,1244.8
2023-03-13T02:39:05.243Z,1244.6
2023-03-13T02:40:48.932Z,1245.7
2023-03-13T02:42:32.651Z,1244.3
2023-03-13T02:44:16.341Z,1240.7
2023-03-13T02:46:00.049Z,1240.9
2023-03-13T02:47:43.751Z,1241.9
2023-03-13T02:49:27.477Z,1243.5
2023-03-13T02:51:11.170Z,1241.2
2023-03-13T02:52:54.859Z,1244.5
2023-03-13T02:54:38.627Z,1247.9
2023-03-13T02:56:22.248Z,1250.6
2023-03-13T02:58:06.001Z,1249.8
2023-03-13T02:59:49.665Z,1258.3
2023-03-13T03:01:33.375Z,1262.3
2023-03-13T03:03:17.082Z,1258.8
2023-03-13T03:05:00.778Z,1257.1
2023-03-13T03:06:44.482Z,1258.4
2023-03-13T03:08:28.195Z,1260.2
2023-03-13T03:10:11.881Z,1263.5
2023-03-13T03:11:55.597Z,1261.5
2023-03-13T03:13:39.315Z,1255.1
2023-03-13T03:15:22.990Z,1252.9
2023-03-13T03:17:06.701Z,1258.2
2023-03-13T03:18:50.423Z,1259.9
2023-03-13T03:20:34.100Z,1258.1
2023-03-13T03:22:17.836Z,1257.1
2023-03-13T03:24:01.496Z,1256.9
2023-03-13T03:25:45.222Z,1258.1
2023-03-13T03:27:28.934Z,1259.7
2023-03-13T03:29:12.609Z,1257.5
2023-03-13T03:30:56.303Z,1258.1
2023-03-13T03:32:40.011Z,1260.2
2023-03-13T03:34:23.709Z,1261.8
2023-03-13T03:36:07.420Z,1265.3
2023-03-13T03:37:51.123Z,1266.9
2023-03-13T03:39:34.818Z,1266.4
2023-03-13T03:41:18.521Z,1270.1
2023-03-13T03:43:02.218Z,1274.7
2023-03-13T03:44:46.014Z,1276
2023-03-13T03:46:29.700Z,1277.3
2023-03-13T03:48:13.330Z,1279
2023-03-13T03:49:57.047Z,1280.7
2023-03-13T03:51:40.744Z,1279.7
2023-03-13T03:53:24.455Z,1277.6
2023-03-13T03:55:08.142Z,1282.2
2023-03-13T03:56:51.856Z,1279.9
2023-03-13T03:58:35.550Z,1281.7
2023-03-13T04:00:19.251Z,1284.4
2023-03-13T04:02:02.950Z,1289.7
2023-03-13T04:03:46.689Z,1292.1
2023-03-13T04:05:30.357Z,1289.5
2023-03-13T04:07:14.079Z,1288.9
2023-03-13T04:08:57.773Z,1293.9
2023-03-13T04:10:41.468Z,1296.2
2023-03-13T04:12:25.174Z,1299
2023-03-13T04:14:08.899Z,1301.6
2023-03-13T04:15:52.569Z,1298.3
2023-03-13T04:17:36.294Z,1296
2023-03-13T04:19:20.022Z,1296.5
2023-03-13T04:21:03.689Z,1296.7
2023-03-13T04:22:47.389Z,1303.2
2023-03-13T04:24:31.085Z,1302.9
2023-03-13T04:26:14.793Z,1301.1
2023-03-13T04:27:58.498Z,1303.6
2023-03-13T04:29:42.185Z,1304.6
2023-03-13T04:31:25.893Z,1308.5
2023-03-13T04:33:09.715Z,1308.8
2023-03-13T04:34:53.304Z,1312.5
2023-03-13T04:36:37.005Z,1315.1
2023-03-13T04:38:20.696Z,1317.3
2023-03-13T04:40:04.416Z,1316
2023-03-13T04:41:48.108Z,1312.2
2023-03-13T04:43:31.811Z,1310.7
2023-03-13T04:45:15.551Z,1314.4
2023-03-13T04:46:59.223Z,1316.5
2023-03-13T04:48:42.915Z,1315.2
2023-03-13T04:50:26.668Z,1317.6
2023-03-13T04:52:10.350Z,1316.3
2023-03-13T04:53:54.035Z,1316.2
2023-03-13T04:55:37.736Z,1316.2
2023-03-13T04:57:21.435Z,1316.9
2023-03-13T04:59:05.136Z,1314.5
2023-03-13T05:00:48.866Z,1313.1
2023-03-13T05:02:32.534Z,1313.2
2023-03-13T05:04:16.235Z,1311.8
2023-03-13T05:05:59.946Z,1312.7
2023-03-13T05:07:43.644Z,1313.2
2023-03-13T05:09:27.355Z,1314.7
2023-03-13T05:11:11.052Z,1312.6
2023-03-13T05:12:54.751Z,1311.3
2023-03-13T05:14:38.462Z,1315.1
2023-03-13T05:16:22.156Z,1315.3
2023-03-13T05:18:05.856Z,1317.9
2023-03-13T05:19:49.565Z,1320.3
2023-03-13T05:21:33.267Z,1321.3
2023-03-13T05:23:16.973Z,1324.6
2023-03-13T05:25:00.664Z,1324.5
2023-03-13T05:26:44.382Z,1330.1
2023-03-13T05:28:28.074Z,1329.7
2023-03-13T05:30:11.826Z,1332.9
2023-03-13T05:31:55.481Z,1335.3
2023-03-13T05:33:39.188Z,1333
2023-03-13T05:35:22.892Z,1330.4
2023-03-13T05:37:06.607Z,1331.5
2023-03-13T05:38:50.292Z,1334.7
2023-03-13T05:40:33.996Z,1342.5
2023-03-13T05:42:17.693Z,1344.1
2023-03-13T05:44:01.410Z,1341.7
2023-03-13T05:45:45.127Z,1340.4
2023-03-13T05:47:28.829Z,1343.9
2023-03-13T05:49:12.510Z,1342.4
2023-03-13T05:50:56.207Z,1343.1
2023-03-13T05:52:39.920Z,1344.1
2023-03-13T05:54:23.640Z,1341.8
2023-03-13T05:56:07.339Z,1339.3
2023-03-13T05:57:51.012Z,1341
2023-03-13T05:59:34.719Z,1339.8
2023-03-13T06:03:02.146Z,1343.4
2023-03-13T06:04:45.957Z,1346.9
2023-03-13T06:06:29.533Z,1348.7
2023-03-13T06:08:13.230Z,1349.1
2023-03-13T06:09:56.952Z,1350.7
2023-03-13T06:11:41.067Z,1351.3
2023-03-13T06:13:24.383Z,1357.6
2023-03-13T06:15:08.154Z,1364.7
2023-03-13T06:16:51.814Z,1371.6
2023-03-13T06:18:35.445Z,1380.3
2023-03-13T06:20:19.142Z,1390.6
2023-03-13T06:22:02.852Z,1397.6
2023-03-13T06:23:46.546Z,1413.8
2023-03-13T06:25:30.260Z,1429.1
2023-03-13T06:27:13.977Z,1439.3
2023-03-13T06:28:57.658Z,1434.2
2023-03-13T06:30:41.405Z,1436.8
2023-03-13T06:32:25.062Z,1439.7
2023-03-13T06:34:08.969Z,1440.4
2023-03-13T06:35:52.473Z,1435.8
2023-03-13T06:37:36.338Z,1432.1
2023-03-13T06:39:19.877Z,1431.7
2023-03-13T06:41:03.614Z,1429.5
2023-03-13T06:42:47.385Z,1426.4
2023-03-13T06:44:31.048Z,1433.3
2023-03-13T06:46:14.806Z,1431.2
2023-03-13T06:47:58.406Z,1431.6
2023-03-13T06:49:42.081Z,1434.7
2023-03-13T06:51:25.895Z,1435.7
2023-03-13T06:53:09.564Z,1439.6
2023-03-13T06:54:53.284Z,1436.7
2023-03-13T06:56:37.059Z,1436.4
2023-03-13T06:58:20.701Z,1436.3
2023-03-13T07:00:04.360Z,1522.6
2023-03-13T07:01:48.204Z,1516.1
2023-03-13T07:03:31.910Z,1511.2
2023-03-13T07:05:15.540Z,1543.3
2023-03-13T07:06:59.157Z,1554.7
2023-03-13T07:08:42.971Z,1542.6
2023-03-13T07:10:26.540Z,1553
2023-03-13T07:12:10.407Z,1581.1
2023-03-13T07:13:54.117Z,1591.7
2023-03-13T07:15:37.767Z,1588
2023-03-13T07:17:21.436Z,1594.3
2023-03-13T07:19:05.228Z,1602.1
2023-03-13T07:20:48.777Z,1599.5
2023-03-13T07:22:32.528Z,1597.1
2023-03-13T07:24:16.227Z,1593.8
2023-03-13T07:25:59.990Z,1594.3
2023-03-13T07:27:43.664Z,1675.7
2023-03-13T07:29:27.444Z,1910.2
2023-03-13T07:31:11.166Z,1902.7
2023-03-13T07:32:54.764Z,1842
2023-03-13T07:34:38.512Z,1825.4
2023-03-13T07:36:22.271Z,1800.6
2023-03-13T07:38:05.936Z,1792.2
2023-03-13T07:39:49.639Z,1785.6
2023-03-13T07:41:33.176Z,1775
2023-03-13T07:43:16.988Z,1765.6
2023-03-13T07:45:00.708Z,1759.5
2023-03-13T07:46:44.443Z,1758
2023-03-13T07:48:27.987Z,1758.6
2023-03-13T07:50:11.875Z,1765.4
2023-03-13T07:51:55.515Z,1764
2023-03-13T07:53:39.316Z,1759.2
2023-03-13T07:55:23.011Z,1754.8
2023-03-13T07:57:06.504Z,1748.2
2023-03-13T07:58:50.198Z,1734.1
2023-03-13T08:00:33.888Z,1729.9
2023-03-13T08:02:17.600Z,1729.8
2023-03-13T08:04:01.474Z,1731.7
2023-03-13T08:05:45.083Z,1732.7
2023-03-13T08:07:28.792Z,1726.5
2023-03-13T08:09:12.410Z,1715
2023-03-13T08:10:56.120Z,1703.6
2023-03-13T08:12:39.830Z,1701.9
2023-03-13T08:14:23.662Z,1696
2023-03-13T08:16:07.233Z,1694.2
2023-03-13T08:17:50.975Z,1694.7
2023-03-13T08:19:34.683Z,1693.8
2023-03-13T08:21:18.345Z,1689
2023-03-13T08:23:02.144Z,1684.6
2023-03-13T08:24:45.779Z,1684.8
2023-03-13T08:26:29.490Z,1675.7
2023-03-13T08:28:13.132Z,1652.2
2023-03-13T08:29:56.856Z,1650.1
2023-03-13T08:31:40.539Z,1647.8
2023-03-13T08:33:24.253Z,1647.9
2023-03-13T08:35:07.961Z,1640.2
2023-03-13T08:36:51.707Z,1638.7
2023-03-13T08:38:35.361Z,1632.5
2023-03-13T08:40:19.050Z,1626.4
2023-03-13T08:42:02.832Z,1624.8
2023-03-13T08:43:46.528Z,1618.1
2023-03-13T08:45:30.154Z,1616
2023-03-13T08:47:13.859Z,1607
2023-03-13T08:48:57.575Z,1602.8
2023-03-13T08:50:41.261Z,1594.2
2023-03-13T08:52:25.044Z,1591.4
2023-03-13T08:54:08.680Z,1586.3
2023-03-13T08:55:52.378Z,1579.9
2023-03-13T08:57:36.081Z,1579.2
2023-03-13T08:59:19.809Z,1576.9
2023-03-13T09:01:03.482Z,1570.2
2023-03-13T09:02:47.229Z,1573.9
2023-03-13T09:04:30.888Z,1575.2
2023-03-13T09:06:14.595Z,1571.3
2023-03-13T09:07:58.301Z,1564.5
2023-03-13T09:09:42.068Z,1548.3
2023-03-13T09:11:25.734Z,1539.9
2023-03-13T09:13:09.402Z,1532.3
2023-03-13T09:14:53.107Z,1520.5
2023-03-13T09:16:36.890Z,1519.6
2023-03-13T09:18:20.521Z,1518.6
2023-03-13T09:20:04.306Z,1515.4
2023-03-13T09:21:48.141Z,1510.1
2023-03-13T09:23:31.631Z,1509.6
2023-03-13T09:25:15.361Z,1504.8
2023-03-13T09:26:59.016Z,1495.2
2023-03-13T09:28:42.863Z,1492
2023-03-13T09:30:26.436Z,1501.8
2023-03-13T09:32:10.132Z,1504.7
2023-03-13T09:33:53.963Z,1505.5
2023-03-13T09:35:37.699Z,1500.9
2023-03-13T09:37:21.308Z,1490.8
2023-03-13T09:39:04.944Z,1482.2
2023-03-13T09:40:48.844Z,1471.3
2023-03-13T09:42:32.445Z,1462.9
2023-03-13T09:44:16.204Z,1456.4
2023-03-13T09:45:59.802Z,1461.5
2023-03-13T09:47:43.454Z,1461.5
2023-03-13T09:49:27.179Z,1462.1
2023-03-13T09:51:10.891Z,1456.2
2023-03-13T09:52:54.556Z,1451.7
2023-03-13T09:54:38.257Z,1448.8
2023-03-13T09:56:21.962Z,1442.6
2023-03-13T09:58:05.729Z,1439.5
2023-03-13T09:59:49.394Z,1440.5
2023-03-13T10:01:33.064Z,1440.7
2023-03-13T10:03:16.772Z,1435
2023-03-13T10:05:00.470Z,1426.4
2023-03-13T10:06:44.179Z,1423.1
2023-03-13T10:08:27.876Z,1420
2023-03-13T10:10:11.599Z,1414.6
2023-03-13T10:11:55.289Z,1409.2
2023-03-13T10:13:39.026Z,1398.6
2023-03-13T10:15:22.685Z,1389.6
2023-03-13T10:17:06.563Z,1385.3
2023-03-13T10:18:50.094Z,1382.4
2023-03-13T10:20:33.822Z,1379.1
2023-03-13T10:22:17.512Z,1373.3
2023-03-13T10:24:01.193Z,1368.1
2023-03-13T10:25:44.901Z,1363.3
2023-03-13T10:27:28.609Z,1362.6
2023-03-13T10:29:12.311Z,1356.7
2023-03-13T10:30:56.008Z,1332.9
2023-03-13T10:32:39.712Z,1325.1
2023-03-13T10:34:23.415Z,1326.7
2023-03-13T10:36:07.115Z,1328.3
2023-03-13T10:37:50.828Z,1327.7
2023-03-13T10:39:34.521Z,1330.1
2023-03-13T10:41:18.237Z,1324.8
2023-03-13T10:43:01.952Z,1322.1
2023-03-13T10:44:45.712Z,1324.5
2023-03-13T10:46:29.341Z,1324.6
2023-03-13T10:48:13.041Z,1317.7
2023-03-13T10:49:56.757Z,1310.2
2023-03-13T10:51:40.534Z,1300.1
2023-03-13T10:53:24.168Z,1273.7
2023-03-13T10:55:07.889Z,1268.8
2023-03-13T10:56:51.562Z,1265.9
2023-03-13T10:58:35.270Z,1266.9
2023-03-13T11:00:18.967Z,1266
2023-03-13T11:02:02.680Z,1261.7
2023-03-13T11:03:46.418Z,1262.2
2023-03-13T11:05:30.116Z,1265.9
2023-03-13T11:07:13.792Z,1259.8
2023-03-13T11:08:57.612Z,1255.8
2023-03-13T11:10:41.279Z,1255.9
2023-03-13T11:12:24.900Z,1245.5
2023-03-13T11:14:08.665Z,1236.6
2023-03-13T11:15:52.278Z,1238.2
2023-03-13T11:17:36.008Z,1235.3
2023-03-13T11:19:19.859Z,1235.7
2023-03-13T11:21:03.383Z,1234.6
2023-03-13T11:22:47.094Z,1234.9
2023-03-13T11:24:30.786Z,1236.3
2023-03-13T11:26:14.499Z,1232.4
2023-03-13T11:27:58.203Z,1227.2
2023-03-13T11:29:41.904Z,1216.2
2023-03-13T11:31:25.588Z,1217.8
2023-03-13T11:33:09.303Z,1215.4
2023-03-13T11:34:53.014Z,1214.2
2023-03-13T11:36:36.907Z,1208.7
2023-03-13T11:38:20.636Z,1205
2023-03-13T11:40:04.166Z,1202.5
2023-03-13T11:41:47.813Z,1205.5
2023-03-13T11:43:31.620Z,1205.6
2023-03-13T11:45:15.384Z,1204.9
2023-03-13T11:46:59.179Z,1203.6
2023-03-13T11:48:42.703Z,1198.2
2023-03-13T11:50:26.328Z,1195.5
2023-03-13T11:52:10.050Z,1190.6
2023-03-13T11:53:53.732Z,1183.2
2023-03-13T11:55:37.492Z,1179.3
2023-03-13T11:57:21.211Z,1175.6
2023-03-13T11:59:04.993Z,1174.3
2023-03-13T12:00:48.562Z,1173.7
2023-03-13T12:02:32.290Z,1169.5
2023-03-13T12:04:16.033Z,1167
2023-03-13T12:05:59.647Z,1163.9
2023-03-13T12:07:43.363Z,1166.9
2023-03-13T12:09:27.063Z,1174
2023-03-13T12:11:10.824Z,1169.6
2023-03-13T12:12:54.521Z,1161.1
2023-03-13T12:14:38.333Z,1161.6
2023-03-13T12:16:21.861Z,1161.8
2023-03-13T12:18:05.585Z,1164
2023-03-13T12:19:49.280Z,1169.4
2023-03-13T12:21:32.967Z,1171.2
2023-03-13T12:23:16.705Z,1168.9
2023-03-13T12:25:00.372Z,1163.5
2023-03-13T12:28:27.784Z,1162
2023-03-13T12:30:11.569Z,1162.1
2023-03-13T12:31:55.188Z,1158.2
2023-03-13T12:33:38.940Z,1147.1
2023-03-13T12:35:22.656Z,1139.1
2023-03-13T12:37:06.375Z,1141.9
2023-03-13T12:38:50.120Z,1140.6
2023-03-13T12:40:33.720Z,1137.4
2023-03-13T12:42:17.403Z,1134.5
2023-03-13T12:44:01.113Z,1129.8
2023-03-13T12:45:44.810Z,1129.1
2023-03-13T12:47:28.508Z,1126.2
2023-03-13T12:49:12.223Z,1122.2
2023-03-13T12:50:55.924Z,1110.3
2023-03-13T12:52:39.626Z,1102.9
2023-03-13T12:54:23.336Z,1100.7
2023-03-13T12:56:07.034Z,1098.1
2023-03-13T12:57:50.736Z,1098.2
2023-03-13T12:59:34.444Z,1094.2
2023-03-13T13:01:18.146Z,1091.4
2023-03-13T13:03:01.840Z,1092
2023-03-13T13:04:45.545Z,1091.4
2023-03-13T13:06:29.243Z,1090.5
2023-03-13T13:08:12.957Z,1087.9
2023-03-13T13:09:56.646Z,1082.9
2023-03-13T13:11:40.373Z,1081
2023-03-13T13:13:24.054Z,1079.3
2023-03-13T13:15:07.786Z,1079.8
2023-03-13T13:16:51.458Z,1080.5
2023-03-13T13:18:35.173Z,1079.1
2023-03-13T13:20:18.849Z,1073.5
2023-03-13T13:22:02.562Z,1072.3
2023-03-13T13:23:46.254Z,1072.6
2023-03-13T13:25:29.958Z,1069.4
2023-03-13T13:27:13.666Z,1067.7
2023-03-13T13:28:57.363Z,1069.4
2023-03-13T13:30:41.059Z,1069.2
2023-03-13T13:32:24.773Z,1066
2023-03-13T13:34:08.472Z,1064.7
2023-03-13T13:35:52.178Z,1060.1
2023-03-13T13:37:35.880Z,1058.9
2023-03-13T13:39:19.580Z,1056.1
2023-03-13T13:41:03.284Z,1054.3
2023-03-13T13:42:47.003Z,1048.9
2023-03-13T13:44:30.685Z,1045.2
2023-03-13T13:46:14.397Z,1043.6
2023-03-13T13:47:58.108Z,1044.4
2023-03-13T13:49:41.819Z,1050.2
2023-03-13T13:51:25.510Z,1054.4
2023-03-13T13:53:09.197Z,1054.2
2023-03-13T13:54:53.014Z,1054.6
2023-03-13T13:56:36.633Z,1053.6
2023-03-13T13:58:20.306Z,1049
2023-03-13T14:00:04.004Z,1044.8
2023-03-13T14:01:47.715Z,1041.1
2023-03-13T14:05:15.117Z,1026.8
2023-03-13T14:06:58.830Z,1021.6
2023-03-13T14:08:42.538Z,1023.4
2023-03-13T14:10:26.221Z,1019.2
2023-03-13T14:12:09.945Z,1015.4
2023-03-13T14:13:53.629Z,1015.9
2023-03-13T14:15:37.337Z,1016.4
2023-03-13T14:17:21.052Z,1013.4
2023-03-13T14:19:04.738Z,1012.2
2023-03-13T14:20:48.448Z,1012.5
2023-03-13T14:22:32.158Z,1012.1
2023-03-13T14:24:15.874Z,1014.7
2023-03-13T14:25:59.633Z,1009
2023-03-13T14:27:43.263Z,1006.1
2023-03-13T14:29:26.972Z,998.9
2023-03-13T14:31:10.686Z,993.5
2023-03-13T14:34:38.088Z,994.1
2023-03-13T14:36:21.783Z,993.9
2023-03-13T14:38:05.484Z,992.5
2023-03-13T14:39:49.222Z,991.3
2023-03-13T14:41:32.886Z,989.7
2023-03-13T14:43:16.598Z,987.8
2023-03-13T14:45:00.297Z,985.1
2023-03-13T14:46:43.982Z,978.1
2023-03-13T14:48:27.740Z,977.1
2023-03-13T14:50:11.403Z,979
2023-03-13T14:51:55.101Z,978.7
2023-03-13T14:53:38.802Z,980.2
2023-03-13T14:55:22.504Z,980
2023-03-13T14:57:06.240Z,978.4
2023-03-13T14:58:49.919Z,977.6
2023-03-13T15:00:33.605Z,977.6
2023-03-13T15:02:17.315Z,976
2023-03-13T15:04:01.025Z,970
2023-03-13T15:05:44.718Z,967.6
2023-03-13T15:07:28.420Z,968
2023-03-13T15:09:12.110Z,969
2023-03-13T15:10:55.820Z,969.8
2023-03-13T15:12:39.518Z,973.4
2023-03-13T15:14:23.209Z,973
2023-03-13T15:16:06.920Z,966.2
2023-03-13T15:17:50.632Z,966.3
2023-03-13T15:19:34.332Z,968.9
2023-03-13T15:21:18.075Z,969
2023-03-13T15:23:01.730Z,970.5
2023-03-13T15:24:45.437Z,968.3
2023-03-13T15:26:29.254Z,960.7
2023-03-13T15:28:12.838Z,958.8
2023-03-13T15:29:56.543Z,960
2023-03-13T15:33:23.947Z,958.5
2023-03-13T15:35:07.723Z,957.3
2023-03-13T15:36:51.358Z,960.9
2023-03-13T15:38:35.168Z,960.1
2023-03-13T15:40:18.845Z,960
2023-03-13T15:42:02.460Z,958.8
2023-03-13T15:43:46.159Z,955.7
2023-03-13T15:45:29.880Z,957.4
2023-03-13T15:47:13.625Z,955.4
2023-03-13T15:48:57.289Z,949.5
2023-03-13T15:50:41.047Z,941.2
2023-03-13T15:52:24.699Z,939.2
2023-03-13T15:54:08.401Z,937.8
2023-03-13T15:55:52.083Z,934.2
2023-03-13T15:57:35.840Z,932.3
2023-03-13T15:59:19.489Z,932.7
2023-03-13T16:01:03.185Z,928.9
2023-03-13T16:02:46.903Z,928.4
2023-03-13T16:04:30.601Z,926.6
2023-03-13T16:06:14.318Z,924.2
2023-03-13T16:09:41.690Z,915.2
2023-03-13T16:11:25.401Z,916.4
2023-03-13T16:13:09.105Z,916.7
2023-03-13T16:14:52.811Z,916.7
2023-03-13T16:16:36.508Z,915.4
2023-03-13T16:18:20.206Z,912.5
2023-03-13T16:20:03.924Z,909.9
2023-03-13T16:21:47.618Z,908
2023-03-13T16:23:31.315Z,908.5
2023-03-13T16:25:15.025Z,907.2
2023-03-13T16:26:58.722Z,907.9
2023-03-13T16:28:42.423Z,908.9
2023-03-13T16:30:26.156Z,907.6
2023-03-13T16:32:09.813Z,906.2
2023-03-13T16:33:53.528Z,905.9
2023-03-13T16:35:37.243Z,907.9
2023-03-13T16:37:20.935Z,908.2
2023-03-13T16:39:04.637Z,912.1
2023-03-13T16:40:48.336Z,918.4
2023-03-13T16:42:32.058Z,928.7
2023-03-13T16:44:15.747Z,935.2
2023-03-13T16:45:59.436Z,934.1
2023-03-13T16:47:43.150Z,935
2023-03-13T16:49:26.855Z,939.4
2023-03-13T16:51:10.603Z,942.9
2023-03-13T16:52:54.256Z,947.6
2023-03-13T16:54:38.069Z,952.1
2023-03-13T16:56:21.834Z,956.1
2023-03-13T16:58:05.518Z,958.6
2023-03-13T16:59:49.220Z,955.6
2023-03-13T17:01:32.795Z,953.4
2023-03-13T17:03:16.590Z,950.3
2023-03-13T17:05:00.301Z,949.8
2023-03-13T17:06:44.025Z,949.3
2023-03-13T17:08:27.792Z,947.9
2023-03-13T17:10:11.424Z,948
2023-03-13T17:11:55.137Z,945.7
2023-03-13T17:13:38.867Z,940.3
2023-03-13T17:15:22.385Z,937
2023-03-13T17:18:49.972Z,932.3
2023-03-13T17:20:33.513Z,933.3
2023-03-13T17:22:17.376Z,930.3
2023-03-13T17:24:01.079Z,931.1
2023-03-13T17:25:44.623Z,928.9
2023-03-13T17:27:28.465Z,930.5
2023-03-13T17:29:12.182Z,928.7
2023-03-13T17:30:55.831Z,925.8
2023-03-13T17:32:39.398Z,922.4
2023-03-13T17:34:23.104Z,916.3
2023-03-13T17:36:06.960Z,915.7
2023-03-13T17:37:50.725Z,916.5
2023-03-13T17:39:34.368Z,912.5
2023-03-13T17:41:18.100Z,912.6
2023-03-13T17:43:01.840Z,910.3
2023-03-13T17:44:45.538Z,907.6
2023-03-13T17:46:29.220Z,903
2023-03-13T17:48:12.910Z,903.8
2023-03-13T17:49:56.679Z,902.5
2023-03-13T17:51:40.298Z,902.9
2023-03-13T17:53:24.047Z,902.5
2023-03-13T17:55:07.737Z,903.7
2023-03-13T17:56:51.322Z,901.6
2023-03-13T17:58:35.148Z,899.8
2023-03-13T18:00:18.799Z,896.3
2023-03-13T18:02:02.524Z,896.6
2023-03-13T18:03:46.229Z,895.6
2023-03-13T18:05:29.891Z,894.1
2023-03-13T18:07:13.687Z,890.4
2023-03-13T18:08:57.329Z,888.6
2023-03-13T18:10:40.857Z,888.3
2023-03-13T18:12:24.691Z,884.4
2023-03-13T18:14:08.443Z,878.5
2023-03-13T18:15:52.106Z,873.7
2023-03-13T18:17:35.832Z,871
2023-03-13T18:19:19.534Z,868.3
2023-03-13T18:21:03.260Z,868
2023-03-13T18:22:46.971Z,874.7
2023-03-13T18:24:30.647Z,876
2023-03-13T18:26:14.354Z,877.5
2023-03-13T18:27:58.077Z,877
2023-03-13T18:29:41.740Z,874.9
2023-03-13T18:31:25.486Z,875.1
2023-03-13T18:33:08.983Z,871
2023-03-13T18:34:52.933Z,866.1
2023-03-13T18:36:36.565Z,865.3
2023-03-13T18:38:20.261Z,863.3
2023-03-13T18:40:03.797Z,863.1
2023-03-13T18:41:47.508Z,861.6
2023-03-13T18:43:31.379Z,862.8
2023-03-13T18:45:15.057Z,864.6
2023-03-13T18:46:58.844Z,865.5
2023-03-13T18:48:42.472Z,864
2023-03-13T18:50:26.201Z,862.8
2023-03-13T18:52:09.877Z,859.9
2023-03-13T18:53:53.586Z,854.6
2023-03-13T18:55:37.316Z,850.7
2023-03-13T18:57:20.989Z,844.8
2023-03-13T18:59:04.720Z,836.9
2023-03-13T19:00:48.350Z,839.4
2023-03-13T19:02:32.089Z,831.8
2023-03-13T19:04:15.793Z,829.8
2023-03-13T19:05:59.503Z,829.2
2023-03-13T19:07:43.154Z,830.2
2023-03-13T19:09:26.910Z,829.3
2023-03-13T19:11:10.583Z,828.9
2023-03-13T19:12:54.380Z,829
2023-03-13T19:14:38.036Z,826.2
2023-03-13T19:16:21.654Z,822.6
2023-03-13T19:18:05.391Z,821.2
2023-03-13T19:19:49.219Z,822
2023-03-13T19:21:32.842Z,824
2023-03-13T19:23:16.493Z,823.6
2023-03-13T19:25:00.188Z,826
2023-03-13T19:26:43.911Z,826
2023-03-13T19:28:27.628Z,828.5
2023-03-13T19:30:11.330Z,826.5
2023-03-13T19:31:55.072Z,821.8
2023-03-13T19:33:38.588Z,821.1
2023-03-13T19:35:22.461Z,825.5
2023-03-13T19:37:06.157Z,826.2
2023-03-13T19:38:49.925Z,825.4
2023-03-13T19:40:33.559Z,825.7
2023-03-13T19:42:17.253Z,822
2023-03-13T19:44:00.937Z,822.5
2023-03-13T19:45:44.618Z,824.4
2023-03-13T19:47:28.343Z,825
2023-03-13T19:49:12.085Z,825.1
2023-03-13T19:50:55.794Z,824.1
2023-03-13T19:52:39.433Z,830.6
2023-03-13T19:54:23.239Z,847.4
2023-03-13T19:56:06.834Z,777.5
2023-03-13T19:57:50.594Z,636.9
2023-03-13T19:59:34.134Z,599
2023-03-13T20:01:17.995Z,569.6
2023-03-13T20:03:01.708Z,659.9
2023-03-13T20:04:45.426Z,741
2023-03-13T20:06:29.112Z,748.6
2023-03-13T20:09:56.577Z,739.9
2023-03-13T20:11:40.189Z,734.7
2023-03-13T20:13:23.894Z,725.3
2023-03-13T20:15:07.614Z,723.5
2023-03-13T20:16:51.284Z,720
2023-03-13T20:18:34.981Z,714
2023-03-13T20:20:18.711Z,709.9
2023-03-13T20:22:02.416Z,710.9
2023-03-13T20:23:46.122Z,709.8
2023-03-13T20:25:29.648Z,709.4
2023-03-13T20:27:13.527Z,711
2023-03-13T20:28:57.232Z,712.2
2023-03-13T20:30:40.925Z,720.5
2023-03-13T20:32:24.464Z,727.9
2023-03-13T20:34:08.365Z,734.1
2023-03-13T20:35:52.000Z,743.8
2023-03-13T20:37:35.648Z,753.6
2023-03-13T20:39:19.304Z,776.1
2023-03-13T20:41:03.160Z,775.9
2023-03-13T20:42:46.680Z,769.2
2023-03-13T20:44:30.388Z,780.4
2023-03-13T20:46:14.177Z,781.7
2023-03-13T20:47:57.814Z,779.5
2023-03-13T20:49:41.553Z,776.4
2023-03-13T20:51:25.239Z,771.4
2023-03-13T20:53:09.020Z,771.5
2023-03-13T20:54:52.753Z,767.7
2023-03-13T20:56:36.513Z,768
2023-03-13T20:58:20.267Z,767.7
2023-03-13T21:00:03.854Z,768.1
2023-03-13T21:01:47.431Z,768.5
2023-03-13T21:03:31.102Z,769.8
2023-03-13T21:05:14.957Z,771.1
2023-03-13T21:06:58.515Z,773.2
2023-03-13T21:08:42.246Z,772.6
2023-03-13T21:10:25.920Z,776
2023-03-13T21:12:09.675Z,779.6
2023-03-13T21:13:53.355Z,778.6
2023-03-13T21:15:37.093Z,778.7
2023-03-13T21:17:20.728Z,774.4
2023-03-13T21:19:04.579Z,773.4
2023-03-13T21:20:48.123Z,774.8
2023-03-13T21:22:31.937Z,774.7
2023-03-13T21:24:15.715Z,779.1
2023-03-13T21:25:59.290Z,785.8
2023-03-13T21:27:43.076Z,787
2023-03-13T21:29:26.790Z,784.5
2023-03-13T21:31:10.491Z,784.4
2023-03-13T21:32:54.063Z,782.7
2023-03-13T21:34:37.931Z,784.2
2023-03-13T21:36:21.618Z,784.8
2023-03-13T21:38:05.498Z,783.6
2023-03-13T21:39:48.850Z,782.4
2023-03-13T21:41:32.698Z,780.6
2023-03-13T21:43:16.439Z,778.3
2023-03-13T21:45:00.132Z,776.9
2023-03-13T21:46:43.852Z,779.5
2023-03-13T21:48:27.493Z,780.9
2023-03-13T21:50:11.203Z,783.3
2023-03-13T21:51:54.879Z,782.5
2023-03-13T21:53:38.511Z,785.5
2023-03-13T21:55:22.298Z,785.2
2023-03-13T21:57:05.947Z,788
2023-03-13T21:58:49.600Z,789.6
2023-03-13T22:00:33.279Z,791
2023-03-13T22:04:00.881Z,793.8
2023-03-13T22:05:44.611Z,793
2023-03-13T22:07:28.225Z,797.5
2023-03-13T22:09:11.825Z,803.2
2023-03-13T22:10:55.588Z,808.8